Time;durP1;ratioP1;P1;durP2;ratioP2;P2;SDS_P1;SDS_P2;PMS_P1;PMS_P2;Temp;Humidity;BMP_temperature;BMP_pressure;BME280_temperature;BME280_humidity;BME280_pressure;Samples;Min_cycle;Max_cycle;Signal;HPM_P1;HPM_P2
2022/01/22 00:02:20;;;;;;;7.27;4.43;;;6.40;99.90;;;;;;4992343;28;20194;-72
2022/01/22 00:04:45;;;;;;;7.67;4.30;;;6.40;99.90;;;;;;4993527;28;20238;-75
2022/01/22 00:07:13;;;;;;;6.33;4.23;;;6.40;99.90;;;;;;4991924;28;20211;-74
2022/01/22 00:09:46;;;;;;;6.07;4.07;;;6.40;99.90;;;;;;4991097;28;20195;-72
2022/01/22 00:12:22;;;;;;;8.33;4.10;;;6.40;99.90;;;;;;4986623;28;20189;-75
2022/01/22 00:14:50;;;;;;;7.27;4.00;;;6.40;99.90;;;;;;4990354;28;20326;-74
2022/01/22 00:17:20;;;;;;;12.57;5.07;;;6.40;99.90;;;;;;4992534;28;20206;-71
2022/01/22 00:19:46;;;;;;;6.90;4.50;;;6.40;99.90;;;;;;4993717;28;20195;-77
2022/01/22 00:22:12;;;;;;;8.23;4.33;;;6.40;99.90;;;;;;4991762;28;20183;-74
2022/01/22 00:24:39;;;;;;;6.90;4.20;;;6.40;99.90;;;;;;4988022;28;20205;-68
2022/01/22 00:27:05;;;;;;;8.93;4.60;;;6.40;99.90;;;;;;4989421;28;20278;-76
2022/01/22 00:29:34;;;;;;;8.40;4.50;;;6.40;99.90;;;;;;4988654;28;20208;-77
2022/01/22 00:31:59;;;;;;;8.67;5.23;;;6.40;99.90;;;;;;4992247;28;20253;-76
2022/01/22 00:34:27;;;;;;;6.30;4.40;;;6.40;99.90;;;;;;4989317;28;20370;-76
2022/01/22 00:36:55;;;;;;;11.30;5.40;;;6.40;99.90;;;;;;4994113;28;20214;-76
2022/01/22 00:39:21;;;;;;;6.90;5.07;;;6.40;99.90;;;;;;4996374;28;20185;-75
2022/01/22 00:41:47;;;;;;;6.67;4.30;;;6.30;99.90;;;;;;4992437;28;20270;-74
2022/01/22 00:44:12;;;;;;;9.30;5.27;;;6.40;99.90;;;;;;4994367;28;20262;-76
2022/01/22 00:46:43;;;;;;;8.47;5.00;;;6.30;99.90;;;;;;4997150;28;20218;-74
2022/01/22 00:49:09;;;;;;;9.10;5.33;;;6.40;99.90;;;;;;4991504;28;20176;-77
2022/01/22 00:51:34;;;;;;;8.00;5.20;;;6.40;99.90;;;;;;4994408;28;20183;-77
2022/01/22 00:54:02;;;;;;;8.03;5.23;;;6.30;99.90;;;;;;4994423;28;20187;-75
2022/01/22 00:56:30;;;;;;;11.37;6.27;;;6.30;99.90;;;;;;4990669;28;20211;-73
2022/01/22 00:58:58;;;;;;;9.27;5.63;;;6.30;99.90;;;;;;4990966;28;20222;-76
2022/01/22 01:01:24;;;;;;;8.13;5.30;;;6.30;99.90;;;;;;4995157;28;20202;-75
2022/01/22 01:03:52;;;;;;;8.07;4.93;;;6.30;99.90;;;;;;4996915;28;20187;-75
2022/01/22 01:06:18;;;;;;;8.97;5.03;;;6.30;99.90;;;;;;4993069;28;20234;-76
2022/01/22 01:08:50;;;;;;;7.47;5.37;;;6.30;99.90;;;;;;4985948;28;20214;-77
2022/01/22 01:11:17;;;;;;;10.33;6.03;;;6.30;99.90;;;;;;4992502;28;20226;-77
2022/01/22 01:13:46;;;;;;;5.80;4.90;;;6.30;99.90;;;;;;4996648;28;20183;-76
2022/01/22 01:16:21;;;;;;;9.27;6.40;;;6.30;99.90;;;;;;4993789;28;20219;-76
2022/01/22 01:32:51;;;;;;;8.43;6.37;;;6.20;99.90;;;;;;4990231;28;20242;-72
2022/01/22 01:35:17;;;;;;;9.00;5.90;;;6.20;99.90;;;;;;4990617;28;20195;-74
2022/01/22 01:37:45;;;;;;;8.93;6.40;;;6.20;99.90;;;;;;4992246;28;20459;-72
2022/01/22 01:40:14;;;;;;;8.53;6.10;;;6.20;99.90;;;;;;4994453;28;20287;-73
2022/01/22 01:43:05;;;;;;;9.50;6.03;;;6.20;99.90;;;;;;4995066;28;20349;-78
2022/01/22 01:45:31;;;;;;;10.37;7.20;;;6.20;99.90;;;;;;4993875;28;20210;-75
2022/01/22 01:48:03;;;;;;;8.17;6.57;;;6.20;99.90;;;;;;4995710;28;20183;-76
2022/01/22 01:50:36;;;;;;;10.20;6.37;;;6.20;99.90;;;;;;4992390;28;20206;-77
2022/01/22 01:53:19;;;;;;;9.03;6.57;;;6.20;99.90;;;;;;4991507;28;20241;-75
2022/01/22 01:58:28;;;;;;;10.50;7.30;;;6.10;99.90;;;;;;4991978;28;20199;-76
2022/01/22 02:00:54;;;;;;;9.77;6.77;;;6.10;99.90;;;;;;4992573;28;20190;-76
2022/01/22 02:03:23;;;;;;;12.07;7.87;;;6.10;99.90;;;;;;4992855;28;20183;-75
2022/01/22 02:05:50;;;;;;;9.30;7.30;;;6.10;99.90;;;;;;4995025;28;20207;-77
2022/01/22 02:08:17;;;;;;;11.00;7.63;;;6.10;99.90;;;;;;4994477;28;20183;-76
2022/01/22 02:10:55;;;;;;;10.73;7.70;;;6.10;99.90;;;;;;4993720;28;20430;-75
2022/01/22 02:14:03;;;;;;;11.37;7.50;;;6.10;99.90;;;;;;4994578;28;20201;-76
2022/01/22 02:24:45;;;;;;;12.30;8.17;;;6.10;99.90;;;;;;4993648;28;20246;-76
2022/01/22 02:27:14;;;;;;;11.40;8.30;;;6.10;99.90;;;;;;4993870;28;20211;-75
2022/01/22 02:29:42;;;;;;;11.00;8.33;;;6.10;99.90;;;;;;4992335;28;20185;-76
2022/01/22 02:35:11;;;;;;;11.63;8.80;;;6.10;99.90;;;;;;4987210;28;20429;-77
2022/01/22 02:37:47;;;;;;;10.10;7.60;;;6.00;99.90;;;;;;4990415;28;20206;-76
2022/01/22 02:40:24;;;;;;;9.17;8.17;;;6.00;99.90;;;;;;4994139;28;20209;-77
2022/01/22 02:42:52;;;;;;;10.73;8.50;;;6.00;99.90;;;;;;4993505;28;20270;-76
2022/01/22 02:45:23;;;;;;;10.30;8.27;;;6.00;99.90;;;;;;4991579;28;20234;-76
2022/01/22 02:47:49;;;;;;;9.97;8.00;;;6.00;99.90;;;;;;4991335;28;20190;-76
2022/01/22 02:50:16;;;;;;;9.27;7.50;;;6.10;99.90;;;;;;4992612;28;20273;-74
2022/01/22 02:52:44;;;;;;;10.27;8.40;;;6.10;99.90;;;;;;4993719;28;20234;-75
2022/01/22 02:55:11;;;;;;;9.43;7.63;;;6.10;99.90;;;;;;4993032;28;20207;-77
2022/01/22 02:57:42;;;;;;;9.50;7.57;;;6.10;99.90;;;;;;4993124;28;20179;-74
2022/01/22 03:00:11;;;;;;;10.33;7.97;;;6.10;99.90;;;;;;4984233;28;20209;-73
2022/01/22 03:02:38;;;;;;;10.63;8.00;;;6.10;99.90;;;;;;4978623;28;20206;-72
2022/01/22 03:05:05;;;;;;;9.07;7.43;;;6.10;99.90;;;;;;4992162;28;20183;-76
2022/01/22 03:07:33;;;;;;;10.67;8.13;;;6.10;99.90;;;;;;4994109;28;20215;-76
2022/01/22 03:10:02;;;;;;;10.57;9.27;;;6.10;99.90;;;;;;4992280;28;20458;-75
2022/01/22 03:17:50;;;;;;;11.47;8.87;;;6.10;99.90;;;;;;4991417;28;20175;-75
2022/01/22 03:28:00;;;;;;;10.73;8.27;;;6.10;99.90;;;;;;4990880;28;20468;-70
2022/01/22 03:30:28;;;;;;;12.27;9.10;;;6.10;99.90;;;;;;4988878;28;21928;-74
2022/01/22 03:32:57;;;;;;;9.97;8.93;;;6.10;99.90;;;;;;4978039;28;20279;-73
2022/01/22 03:37:53;;;;;;;11.80;9.13;;;6.10;99.90;;;;;;4993332;28;20251;-74
2022/01/22 03:40:25;;;;;;;12.47;9.70;;;6.10;99.90;;;;;;4992790;28;20183;-69
2022/01/22 03:42:54;;;;;;;11.03;9.47;;;6.10;99.90;;;;;;4993808;28;20450;-68
2022/01/22 03:45:24;;;;;;;13.33;10.50;;;6.10;99.90;;;;;;4992802;28;20274;-74
2022/01/22 03:47:52;;;;;;;12.00;10.13;;;6.10;99.90;;;;;;4989506;28;20194;-73
2022/01/22 03:50:19;;;;;;;11.80;10.37;;;6.10;99.90;;;;;;4993743;28;20214;-75
2022/01/22 03:52:47;;;;;;;19.70;10.43;;;6.10;99.90;;;;;;4990054;28;20187;-72
2022/01/22 03:55:28;;;;;;;15.23;11.17;;;6.10;99.90;;;;;;4991279;28;20301;-75
2022/01/22 03:57:55;;;;;;;14.53;10.33;;;6.20;99.90;;;;;;4988282;28;20281;-68
2022/01/22 04:00:22;;;;;;;14.37;11.23;;;6.10;99.90;;;;;;4977158;28;20192;-68
2022/01/22 04:05:40;;;;;;;12.93;9.97;;;6.10;99.90;;;;;;4987653;28;20253;-68
2022/01/22 04:08:14;;;;;;;15.20;12.10;;;6.10;99.90;;;;;;4992785;28;20210;-67
2022/01/22 04:10:39;;;;;;;15.53;11.97;;;6.10;99.90;;;;;;4990191;28;20220;-68
2022/01/22 04:13:10;;;;;;;16.13;12.43;;;6.10;99.90;;;;;;4992776;28;20183;-68
2022/01/22 04:15:40;;;;;;;18.20;13.33;;;6.10;99.90;;;;;;4990547;28;20203;-67
2022/01/22 04:29:05;;;;;;;15.63;12.43;;;6.00;99.90;;;;;;4988210;28;20171;-68
2022/01/22 04:31:33;;;;;;;17.97;12.80;;;6.00;99.90;;;;;;4992239;28;20205;-68
2022/01/22 04:33:58;;;;;;;16.17;12.77;;;6.00;99.90;;;;;;4991498;28;20301;-68
2022/01/22 04:36:24;;;;;;;18.17;12.63;;;6.00;99.90;;;;;;4985534;28;20270;-68
2022/01/22 04:38:50;;;;;;;13.00;11.00;;;6.00;99.90;;;;;;4989972;28;20214;-67
2022/01/22 04:41:19;;;;;;;15.03;11.37;;;6.00;99.90;;;;;;4981524;28;20731;-67
2022/01/22 04:43:46;;;;;;;17.37;13.50;;;5.90;99.90;;;;;;4991884;28;20183;-67
2022/01/22 04:46:21;;;;;;;18.50;12.70;;;6.00;99.90;;;;;;4992783;28;20218;-68
2022/01/22 04:49:08;;;;;;;16.33;11.60;;;6.00;99.90;;;;;;4984731;28;20178;-68
2022/01/22 04:57:07;;;;;;;14.03;11.27;;;6.00;99.90;;;;;;4984865;28;21858;-67
2022/01/22 04:59:32;;;;;;;16.43;12.20;;;6.00;99.90;;;;;;4991288;28;20293;-67
2022/01/22 05:02:00;;;;;;;15.47;11.80;;;6.00;99.90;;;;;;4989378;28;20235;-66
2022/01/22 05:04:26;;;;;;;16.30;12.70;;;6.00;99.90;;;;;;4983340;28;20194;-69
2022/01/22 05:06:52;;;;;;;17.20;13.23;;;6.00;99.90;;;;;;4987223;28;20277;-67
2022/01/22 05:09:20;;;;;;;18.20;14.07;;;6.00;99.90;;;;;;4989165;28;20211;-68
2022/01/22 05:11:47;;;;;;;19.13;13.43;;;6.00;99.90;;;;;;4979783;28;20192;-68
2022/01/22 05:14:13;;;;;;;16.23;12.13;;;6.00;99.90;;;;;;4987542;28;20207;-69
2022/01/22 05:16:39;;;;;;;20.83;13.60;;;6.00;99.90;;;;;;5002206;28;20237;-69
2022/01/22 05:19:23;;;;;;;17.33;11.73;;;6.00;99.90;;;;;;4995395;28;20206;-69
2022/01/22 05:21:52;;;;;;;21.20;13.10;;;6.00;99.90;;;;;;4993016;28;20183;-69
2022/01/22 05:24:22;;;;;;;13.33;10.77;;;6.00;99.90;;;;;;4994293;28;20274;-69
2022/01/22 05:37:30;;;;;;;14.77;12.00;;;6.10;99.90;;;;;;4995882;28;20241;-69
2022/01/22 05:39:55;;;;;;;20.43;13.70;;;6.10;99.90;;;;;;4989733;28;20184;-68
2022/01/22 05:42:21;;;;;;;16.77;13.03;;;6.20;99.90;;;;;;4990221;28;20211;-68
2022/01/22 05:44:47;;;;;;;15.77;13.43;;;6.20;99.90;;;;;;4994431;28;20188;-69
2022/01/22 05:47:19;;;;;;;18.63;13.60;;;6.20;99.90;;;;;;4991929;28;20176;-67
2022/01/22 05:49:45;;;;;;;17.93;12.97;;;6.20;99.90;;;;;;4990776;28;20176;-68
2022/01/22 05:52:13;;;;;;;18.87;12.67;;;6.30;99.90;;;;;;4983637;28;20179;-68
2022/01/22 05:59:56;;;;;;;16.53;13.23;;;6.30;99.90;;;;;;4992597;28;20201;-67
2022/01/22 06:02:22;;;;;;;15.90;12.13;;;6.30;99.90;;;;;;5009509;28;20234;-69
2022/01/22 06:04:47;;;;;;;15.07;12.50;;;6.30;99.90;;;;;;4994652;28;20229;-67
2022/01/22 06:07:18;;;;;;;19.00;13.40;;;6.40;99.90;;;;;;4994241;28;20183;-68
2022/01/22 06:09:55;;;;;;;19.50;13.37;;;6.40;99.90;;;;;;4992744;28;20178;-66
2022/01/22 06:12:39;;;;;;;18.53;13.27;;;6.40;99.90;;;;;;4991370;28;20179;-69
2022/01/22 06:15:04;;;;;;;16.60;13.40;;;6.40;99.90;;;;;;4994558;28;20262;-70
2022/01/22 06:17:32;;;;;;;17.53;12.30;;;6.40;99.90;;;;;;4994273;28;20184;-70
2022/01/22 06:19:58;;;;;;;17.13;13.10;;;6.40;99.90;;;;;;4994035;28;20197;-69
2022/01/22 06:22:26;;;;;;;17.13;11.83;;;6.40;99.90;;;;;;4993958;28;20290;-68
2022/01/22 06:24:51;;;;;;;16.50;11.23;;;6.40;99.90;;;;;;4990733;28;20199;-69
2022/01/22 06:27:17;;;;;;;16.30;11.10;;;6.50;99.90;;;;;;4992742;28;20194;-68
2022/01/22 06:29:42;;;;;;;15.77;12.03;;;6.50;99.90;;;;;;4993327;28;20202;-69
2022/01/22 06:32:08;;;;;;;14.47;11.83;;;6.50;99.90;;;;;;4991199;28;20187;-70
2022/01/22 06:34:34;;;;;;;16.17;12.73;;;6.50;99.90;;;;;;4985910;28;20204;-70
2022/01/22 06:37:01;;;;;;;14.93;11.83;;;6.50;99.90;;;;;;4989324;28;20274;-68
2022/01/22 06:39:30;;;;;;;17.37;12.27;;;6.50;99.90;;;;;;4990011;28;20172;-70
2022/01/22 06:41:58;;;;;;;17.67;13.17;;;6.60;99.90;;;;;;4990527;28;20195;-69
2022/01/22 06:44:25;;;;;;;15.90;13.13;;;6.60;99.90;;;;;;4993413;28;20263;-66
2022/01/22 06:46:57;;;;;;;15.43;12.93;;;6.50;99.90;;;;;;4988930;28;20179;-67
2022/01/22 06:49:23;;;;;;;15.07;12.20;;;6.60;99.90;;;;;;4991858;28;20196;-68
2022/01/22 06:51:50;;;;;;;20.77;15.10;;;6.60;99.90;;;;;;4992609;28;20195;-69
2022/01/22 06:54:17;;;;;;;16.57;13.00;;;6.60;99.90;;;;;;4994171;28;20183;-69
2022/01/22 06:56:45;;;;;;;17.50;13.73;;;6.60;99.90;;;;;;4990376;28;20255;-69
2022/01/22 06:59:11;;;;;;;17.77;13.67;;;6.60;99.90;;;;;;4984249;28;20188;-69
2022/01/22 07:01:37;;;;;;;16.63;12.63;;;6.60;99.90;;;;;;4990699;28;20195;-68
2022/01/22 07:04:05;;;;;;;16.57;13.17;;;6.60;99.90;;;;;;4992387;28;20191;-70
2022/01/22 07:06:35;;;;;;;16.37;13.20;;;6.60;99.90;;;;;;5000816;28;20222;-66
2022/01/22 07:09:01;;;;;;;19.40;13.00;;;6.60;99.90;;;;;;4993440;28;20237;-69
2022/01/22 07:11:26;;;;;;;14.53;11.87;;;6.60;99.90;;;;;;4994844;28;20203;-66
2022/01/22 07:13:52;;;;;;;14.90;11.50;;;6.60;99.90;;;;;;4990627;28;20221;-67
2022/01/22 07:16:23;;;;;;;17.20;12.57;;;6.60;99.90;;;;;;4990800;28;20199;-69
2022/01/22 07:18:49;;;;;;;14.57;11.83;;;6.60;99.90;;;;;;4991964;28;20455;-67
2022/01/22 07:21:19;;;;;;;16.27;11.33;;;6.60;99.90;;;;;;4991427;28;20235;-69
2022/01/22 07:26:16;;;;;;;17.17;12.47;;;6.60;99.90;;;;;;4992880;28;20454;-69
2022/01/22 07:28:42;;;;;;;19.33;14.53;;;6.60;99.90;;;;;;4991600;28;20198;-69
2022/01/22 07:31:11;;;;;;;17.70;13.17;;;6.60;99.90;;;;;;4991470;28;20194;-70
2022/01/22 07:33:37;;;;;;;20.03;13.53;;;6.60;99.90;;;;;;4990807;28;20206;-69
2022/01/22 07:36:06;;;;;;;16.37;13.07;;;6.60;99.90;;;;;;4990339;28;20469;-68
2022/01/22 07:38:38;;;;;;;18.83;13.27;;;6.60;99.90;;;;;;4993311;28;20187;-69
2022/01/22 07:41:07;;;;;;;18.33;13.83;;;6.60;99.90;;;;;;4991115;28;20197;-69
2022/01/22 07:43:37;;;;;;;17.43;13.57;;;6.60;99.90;;;;;;4993789;28;20258;-69
2022/01/22 07:46:06;;;;;;;17.10;13.20;;;6.60;99.90;;;;;;4990234;28;20515;-66
2022/01/22 07:48:32;;;;;;;18.17;13.00;;;6.60;99.90;;;;;;4991897;28;20190;-67
2022/01/22 07:50:58;;;;;;;16.07;12.60;;;6.60;99.90;;;;;;4992764;28;20249;-69
2022/01/22 07:53:28;;;;;;;18.30;12.70;;;6.60;99.90;;;;;;4992893;28;20180;-68
2022/01/22 07:55:54;;;;;;;17.03;13.43;;;6.70;99.90;;;;;;4991976;28;20203;-70
2022/01/22 07:58:20;;;;;;;16.57;13.43;;;6.70;99.90;;;;;;4984511;28;20187;-68
2022/01/22 08:00:45;;;;;;;17.20;12.73;;;6.70;99.90;;;;;;4991667;28;20179;-66
2022/01/22 08:03:13;;;;;;;16.47;12.37;;;6.70;99.90;;;;;;4993514;28;20396;-69
2022/01/22 08:05:39;;;;;;;18.87;14.47;;;6.70;99.90;;;;;;4993421;28;20230;-70
2022/01/22 08:08:06;;;;;;;18.63;14.23;;;6.80;99.90;;;;;;4993261;28;20203;-69
2022/01/22 08:10:32;;;;;;;16.17;12.87;;;6.80;99.90;;;;;;4991961;28;20241;-70
2022/01/22 08:12:58;;;;;;;17.67;14.47;;;6.80;99.90;;;;;;4991715;28;20228;-68
2022/01/22 08:15:24;;;;;;;21.23;14.83;;;6.80;99.90;;;;;;4993163;28;20306;-69
2022/01/22 08:17:50;;;;;;;16.50;13.40;;;6.90;99.90;;;;;;4991481;28;20237;-69
2022/01/22 08:20:16;;;;;;;20.27;15.53;;;6.90;99.90;;;;;;4985769;28;20257;-68
2022/01/22 08:22:43;;;;;;;22.47;16.40;;;6.90;99.90;;;;;;4993562;28;20322;-70
2022/01/22 08:25:10;;;;;;;19.50;14.87;;;6.90;99.90;;;;;;4993649;28;20273;-69
2022/01/22 08:30:25;;;;;;;17.53;14.53;;;6.90;99.90;;;;;;4993733;28;20249;-69
2022/01/22 08:33:09;;;;;;;17.17;12.53;;;6.90;99.90;;;;;;4992878;28;20579;-70
2022/01/22 08:35:54;;;;;;;17.00;13.83;;;7.00;99.90;;;;;;4989117;28;20207;-69
2022/01/22 08:38:21;;;;;;;18.03;13.53;;;7.00;99.90;;;;;;4985551;28;20179;-68
2022/01/22 08:40:48;;;;;;;15.43;11.83;;;7.00;99.90;;;;;;4992815;28;20207;-67
2022/01/22 08:43:14;;;;;;;17.20;13.63;;;7.10;99.90;;;;;;4986435;28;20199;-68
2022/01/22 08:45:42;;;;;;;17.33;13.00;;;7.10;99.90;;;;;;4992456;28;20187;-70
2022/01/22 08:48:08;;;;;;;17.93;13.63;;;7.10;99.90;;;;;;4992842;28;20191;-69
2022/01/22 08:50:36;;;;;;;18.80;15.20;;;7.10;99.90;;;;;;4992751;28;20226;-67
2022/01/22 08:53:02;;;;;;;17.23;13.63;;;7.10;99.90;;;;;;4994607;28;20183;-67
2022/01/22 08:55:28;;;;;;;22.63;14.53;;;7.10;99.90;;;;;;4993013;28;20219;-69
2022/01/22 08:57:56;;;;;;;18.03;13.47;;;7.10;99.90;;;;;;4995298;28;20222;-69
2022/01/22 09:00:24;;;;;;;18.27;13.73;;;7.10;99.90;;;;;;4996312;28;20187;-68
2022/01/22 09:02:53;;;;;;;18.93;14.93;;;7.20;99.90;;;;;;4990676;28;20229;-69
2022/01/22 09:05:20;;;;;;;19.50;14.10;;;7.20;99.90;;;;;;4996345;28;20193;-69
2022/01/22 09:07:51;;;;;;;17.87;13.83;;;7.20;99.90;;;;;;4996046;28;20266;-68
2022/01/22 09:10:17;;;;;;;16.90;12.80;;;7.30;99.90;;;;;;4994089;28;20179;-69
2022/01/22 09:12:43;;;;;;;15.83;12.40;;;7.30;99.90;;;;;;4993602;28;20206;-68
2022/01/22 09:15:09;;;;;;;16.53;13.00;;;7.30;99.90;;;;;;4994292;28;20293;-70
2022/01/22 09:17:35;;;;;;;18.57;14.00;;;7.30;99.90;;;;;;4993898;28;20256;-69
2022/01/22 09:20:06;;;;;;;17.13;13.80;;;7.30;99.90;;;;;;4994902;28;20164;-70
2022/01/22 09:22:34;;;;;;;16.33;12.90;;;7.40;99.90;;;;;;4993696;28;20190;-69
2022/01/22 09:24:59;;;;;;;17.70;13.70;;;7.40;99.90;;;;;;4995105;28;20199;-69
2022/01/22 09:27:29;;;;;;;16.03;12.40;;;7.50;99.90;;;;;;4991904;28;20248;-69
2022/01/22 09:29:54;;;;;;;17.33;12.93;;;7.50;99.90;;;;;;4994910;28;20183;-68
2022/01/22 09:32:20;;;;;;;18.60;14.23;;;7.50;99.90;;;;;;4992385;28;20452;-69
2022/01/22 09:34:46;;;;;;;18.30;14.07;;;7.60;99.90;;;;;;4987906;28;20202;-69
2022/01/22 09:37:11;;;;;;;16.60;12.40;;;7.60;99.90;;;;;;4986040;28;20211;-70
2022/01/22 09:39:40;;;;;;;16.23;12.90;;;7.60;99.90;;;;;;4993786;28;20199;-68
2022/01/22 09:42:06;;;;;;;19.10;14.70;;;7.70;99.90;;;;;;4993660;28;20187;-70
2022/01/22 09:44:33;;;;;;;18.47;14.43;;;7.70;99.90;;;;;;4995616;28;20179;-69
2022/01/22 09:46:59;;;;;;;17.50;13.93;;;7.70;99.90;;;;;;4995484;28;20257;-69
2022/01/22 09:49:25;;;;;;;21.10;15.67;;;7.70;99.90;;;;;;4994110;28;20183;-70
2022/01/22 09:51:56;;;;;;;19.57;14.47;;;7.80;99.90;;;;;;4993049;28;20186;-72
2022/01/22 09:54:24;;;;;;;19.40;14.43;;;7.80;99.90;;;;;;4996457;28;20277;-68
2022/01/22 09:56:49;;;;;;;20.10;14.60;;;7.80;99.90;;;;;;4993490;28;20210;-69
2022/01/22 09:59:15;;;;;;;21.13;15.90;;;7.80;99.90;;;;;;4994361;28;20180;-68
2022/01/22 10:01:41;;;;;;;22.47;17.10;;;7.80;99.90;;;;;;4995557;28;20203;-68
2022/01/22 10:04:08;;;;;;;19.60;15.57;;;7.90;99.90;;;;;;4994139;28;20194;-68
2022/01/22 10:06:54;;;;;;;23.23;16.20;;;7.80;99.90;;;;;;4990522;28;20210;-67
2022/01/22 10:09:34;;;;;;;20.90;15.20;;;7.80;99.90;;;;;;4989511;28;20180;-68
2022/01/22 10:12:10;;;;;;;17.43;13.60;;;7.80;99.90;;;;;;4992819;28;20175;-68
2022/01/22 10:14:59;;;;;;;19.77;14.50;;;7.90;99.90;;;;;;4990317;28;20203;-69
2022/01/22 10:17:47;;;;;;;20.67;15.50;;;7.90;99.90;;;;;;4988611;28;20199;-67
2022/01/22 10:20:37;;;;;;;20.53;15.43;;;7.90;99.90;;;;;;4985499;28;20203;-68
2022/01/22 10:23:04;;;;;;;19.20;14.47;;;7.80;99.90;;;;;;4981573;28;20227;-67
2022/01/22 10:25:38;;;;;;;16.60;13.03;;;7.80;99.90;;;;;;4991355;28;20183;-70
2022/01/22 10:28:12;;;;;;;18.77;14.13;;;7.80;99.90;;;;;;4991937;28;20204;-68
2022/01/22 10:30:42;;;;;;;19.73;13.60;;;7.80;99.90;;;;;;4988819;28;20182;-68
2022/01/22 10:33:28;;;;;;;19.33;13.37;;;7.80;99.90;;;;;;4989429;28;20191;-68
2022/01/22 10:36:25;;;;;;;18.77;13.57;;;7.90;99.90;;;;;;4989531;28;20195;-69
2022/01/22 10:38:53;;;;;;;18.23;13.30;;;7.90;99.90;;;;;;4988766;28;20184;-68
2022/01/22 10:41:32;;;;;;;16.37;12.80;;;7.90;99.90;;;;;;4992321;28;20459;-64
2022/01/22 10:44:01;;;;;;;16.70;12.73;;;8.00;99.90;;;;;;4992322;28;20187;-62
2022/01/22 10:49:10;;;;;;;18.70;13.67;;;8.00;99.90;;;;;;4989755;28;20204;-68
2022/01/22 10:51:49;;;;;;;16.07;12.93;;;8.10;99.90;;;;;;4992192;28;20190;-69
2022/01/22 10:54:22;;;;;;;15.20;12.57;;;8.10;99.90;;;;;;4991623;28;20206;-66
2022/01/22 10:56:50;;;;;;;13.80;10.63;;;8.10;99.90;;;;;;4991582;28;20217;-68
2022/01/22 10:59:17;;;;;;;13.00;10.83;;;8.10;99.90;;;;;;4987917;28;20214;-68
2022/01/22 11:01:59;;;;;;;14.70;11.17;;;8.10;99.90;;;;;;4989756;28;20195;-68
2022/01/22 11:04:38;;;;;;;16.20;12.63;;;8.10;99.90;;;;;;4988984;28;20210;-66
2022/01/22 11:07:15;;;;;;;14.93;11.60;;;8.00;99.90;;;;;;4992095;28;20187;-68
2022/01/22 11:09:42;;;;;;;15.20;11.53;;;8.00;99.90;;;;;;4982300;28;20187;-67
2022/01/22 11:12:08;;;;;;;17.73;12.37;;;8.00;99.90;;;;;;4989493;28;20257;-68
2022/01/22 11:14:38;;;;;;;17.60;12.33;;;7.90;99.90;;;;;;4991033;28;20277;-67
2022/01/22 11:17:06;;;;;;;17.60;13.13;;;8.00;99.90;;;;;;4991180;28;20223;-67
2022/01/22 11:19:38;;;;;;;16.33;13.07;;;7.90;99.90;;;;;;4992966;28;20196;-68
2022/01/22 11:22:08;;;;;;;18.33;13.63;;;7.90;99.90;;;;;;5004226;28;20190;-68
2022/01/22 11:24:44;;;;;;;17.70;13.17;;;7.90;99.90;;;;;;4989860;28;20191;-68
2022/01/22 11:27:19;;;;;;;16.10;12.43;;;7.90;99.90;;;;;;4989550;28;20409;-67
2022/01/22 11:30:06;;;;;;;18.97;13.07;;;7.90;99.90;;;;;;4983867;28;20218;-67
2022/01/22 11:32:52;;;;;;;17.73;13.63;;;8.00;99.90;;;;;;4989696;28;20257;-68
2022/01/22 11:35:49;;;;;;;15.83;12.73;;;8.00;99.90;;;;;;4997041;28;20216;-65
2022/01/22 11:38:52;;;;;;;15.10;11.67;;;8.00;99.90;;;;;;4969379;28;20222;-68
2022/01/22 11:41:21;;;;;;;20.40;15.53;;;8.00;99.90;;;;;;4982186;28;20187;-68
2022/01/22 11:44:00;;;;;;;16.67;12.97;;;8.00;99.90;;;;;;4985139;28;20195;-67
2022/01/22 11:46:30;;;;;;;19.07;14.20;;;8.00;99.90;;;;;;4991739;28;20182;-65
2022/01/22 11:49:26;;;;;;;17.27;13.33;;;8.00;99.90;;;;;;4991355;28;20270;-68
2022/01/22 11:52:14;;;;;;;16.83;12.93;;;8.00;99.90;;;;;;4988114;28;20278;-66
2022/01/22 11:55:07;;;;;;;18.77;15.00;;;8.00;99.90;;;;;;4987817;28;20192;-67
2022/01/22 11:57:33;;;;;;;16.93;13.27;;;8.00;99.90;;;;;;4987890;28;20195;-67
2022/01/22 12:00:21;;;;;;;17.53;13.83;;;8.00;99.90;;;;;;4987484;28;20214;-70
2022/01/22 12:03:07;;;;;;;17.77;13.77;;;8.00;99.90;;;;;;4989148;28;20198;-68
2022/01/22 12:05:33;;;;;;;19.53;13.93;;;8.00;99.90;;;;;;4988918;28;20202;-69
2022/01/22 12:08:02;;;;;;;19.50;12.70;;;8.00;99.90;;;;;;4987786;28;20188;-68
2022/01/22 12:14:26;;;;;;;17.60;13.40;;;8.00;99.90;;;;;;4988948;28;20249;-67
2022/01/22 12:16:39;;;;;;;13.83;10.40;;;8.00;99.90;;;;;;4984138;28;20314;-69
2022/01/22 12:19:25;;;;;;;13.23;10.57;;;8.10;99.90;;;;;;4989512;28;20214;-67
2022/01/22 12:21:53;;;;;;;13.63;10.40;;;8.10;99.90;;;;;;4982045;28;20188;-68
2022/01/22 12:24:34;;;;;;;13.53;10.63;;;8.10;99.90;;;;;;4987412;28;20349;-67
2022/01/22 12:27:04;;;;;;;15.60;12.03;;;8.10;99.90;;;;;;4984954;28;20266;-68
2022/01/22 12:29:39;;;;;;;14.17;11.63;;;8.20;99.90;;;;;;4992223;28;20202;-68
2022/01/22 12:32:14;;;;;;;15.60;11.83;;;8.20;99.90;;;;;;4995210;28;20298;-67
2022/01/22 12:35:06;;;;;;;14.77;11.07;;;8.20;99.90;;;;;;4990221;28;20201;-68
2022/01/22 12:37:39;;;;;;;14.43;10.93;;;8.30;99.90;;;;;;4993624;28;20183;-68
2022/01/22 12:40:06;;;;;;;13.73;10.10;;;8.30;99.90;;;;;;4994413;28;20211;-74
2022/01/22 12:42:53;;;;;;;14.13;10.60;;;8.20;99.90;;;;;;4995893;28;20231;-73
2022/01/22 12:45:24;;;;;;;14.70;10.50;;;8.30;99.90;;;;;;4994863;28;20231;-74
2022/01/22 12:47:54;;;;;;;13.30;10.17;;;8.30;99.90;;;;;;4994766;28;20194;-71
2022/01/22 12:50:31;;;;;;;13.27;11.17;;;8.20;99.90;;;;;;4995381;28;20171;-74
2022/01/22 12:53:07;;;;;;;11.63;9.30;;;8.20;99.90;;;;;;4986154;28;20207;-73
2022/01/22 12:56:47;;;;;;;13.47;9.63;;;8.20;99.90;;;;;;4993593;28;20199;-75
2022/01/22 12:58:47;;;;;;;13.90;10.07;;;8.10;99.90;;;;;;4985579;28;20198;-66
2022/01/22 13:01:17;;;;;;;12.10;9.13;;;8.10;99.90;;;;;;4991080;28;20509;-73
2022/01/22 13:03:47;;;;;;;12.37;8.97;;;8.00;99.90;;;;;;4991773;28;20218;-72
2022/01/22 13:06:13;;;;;;;11.70;8.63;;;8.00;99.90;;;;;;4995558;28;20218;-71
2022/01/22 13:08:43;;;;;;;14.13;11.00;;;8.00;99.90;;;;;;4990701;28;20180;-71
2022/01/22 13:11:11;;;;;;;12.77;9.73;;;7.90;99.90;;;;;;4988442;28;20270;-75
2022/01/22 13:13:40;;;;;;;14.00;10.70;;;7.90;99.90;;;;;;4996256;28;20198;-71
2022/01/22 13:16:16;;;;;;;17.53;12.80;;;7.90;99.90;;;;;;5001637;28;20290;-75
2022/01/22 13:18:58;;;;;;;15.07;12.07;;;7.90;99.90;;;;;;4994177;28;20176;-75
2022/01/22 13:21:26;;;;;;;15.07;11.73;;;7.80;99.90;;;;;;4994196;28;20195;-73
2022/01/22 13:24:10;;;;;;;16.33;11.50;;;7.80;99.90;;;;;;4988148;28;20235;-70
2022/01/22 13:26:59;;;;;;;13.93;10.93;;;7.70;99.90;;;;;;4990199;28;20221;-75
2022/01/22 13:29:27;;;;;;;17.67;12.47;;;7.70;99.90;;;;;;4993134;28;20205;-71
2022/01/22 13:32:13;;;;;;;15.67;11.07;;;7.70;99.90;;;;;;4991902;28;20180;-72
2022/01/22 13:48:31;;;;;;;16.20;11.50;;;7.70;99.90;;;;;;4995467;28;20264;-75
2022/01/22 13:51:03;;;;;;;16.93;12.53;;;7.70;99.90;;;;;;4994042;28;20189;-75
2022/01/22 13:53:32;;;;;;;15.47;11.47;;;7.70;99.90;;;;;;4996284;28;20594;-69
2022/01/22 13:56:05;;;;;;;16.60;11.80;;;7.70;99.90;;;;;;4994907;28;20211;-73
2022/01/22 13:58:31;;;;;;;14.77;10.80;;;7.70;99.90;;;;;;4996106;28;20182;-69
2022/01/22 14:01:06;;;;;;;17.10;11.20;;;7.70;99.90;;;;;;4995980;28;20265;-73
2022/01/22 14:03:40;;;;;;;17.70;13.53;;;7.70;99.90;;;;;;4995880;28;20209;-75
2022/01/22 14:06:07;;;;;;;16.57;12.20;;;7.70;99.90;;;;;;4999174;28;20273;-71
2022/01/22 14:08:34;;;;;;;16.20;12.00;;;7.70;99.90;;;;;;4995562;28;20172;-72
2022/01/22 14:11:05;;;;;;;14.93;11.10;;;7.70;99.90;;;;;;4995689;28;20295;-73
2022/01/22 14:13:34;;;;;;;14.17;10.63;;;7.70;99.90;;;;;;4993912;28;20234;-73
2022/01/22 14:16:19;;;;;;;13.90;11.17;;;7.70;99.90;;;;;;4996118;28;20199;-72
2022/01/22 14:18:46;;;;;;;15.73;10.77;;;7.70;99.90;;;;;;4994598;28;20210;-70
2022/01/22 14:21:21;;;;;;;17.00;10.83;;;7.70;99.90;;;;;;4994192;28;20188;-71
2022/01/22 14:23:50;;;;;;;14.80;11.53;;;7.80;99.90;;;;;;4995086;28;20210;-72
2022/01/22 14:26:35;;;;;;;20.43;13.17;;;7.80;99.90;;;;;;4996780;28;20183;-72
2022/01/22 14:29:14;;;;;;;18.23;13.20;;;7.80;99.90;;;;;;4990047;28;20210;-67
2022/01/22 14:31:42;;;;;;;18.57;12.23;;;7.70;99.90;;;;;;4995449;28;20206;-70
2022/01/22 14:34:28;;;;;;;17.33;12.80;;;7.80;99.90;;;;;;4991950;28;20467;-73
2022/01/22 14:36:54;;;;;;;14.20;11.47;;;7.70;99.90;;;;;;4977491;28;20217;-72
2022/01/22 14:44:52;;;;;;;15.10;11.07;;;7.70;99.90;;;;;;4989813;28;20237;-74
2022/01/22 14:47:20;;;;;;;17.03;11.90;;;7.70;99.90;;;;;;4994107;28;20220;-72
2022/01/22 14:49:53;;;;;;;18.03;12.80;;;7.70;99.90;;;;;;4994278;28;20182;-71